Time;durP1;ratioP1;P1;durP2;ratioP2;P2;SDS_P1;SDS_P2;PMS_P1;PMS_P2;Temp;Humidity;BMP_temperature;BMP_pressure;BME280_temperature;BME280_humidity;BME280_pressure;Samples;Min_cycle;Max_cycle;Signal;HPM_P1;HPM_P2
2021/01/01 00:00:33;;;;;;;27.83;18.70;;;1.40;99.90;;;;;;5015072;28;20238;-95
2021/01/01 00:03:00;;;;;;;15.03;10.73;;;1.40;99.90;;;;;;5015044;28;20171;-93
2021/01/01 00:05:49;;;;;;;12.07;9.33;;;1.40;99.90;;;;;;5014957;28;20203;-94
2021/01/01 00:08:18;;;;;;;13.10;9.80;;;1.40;99.90;;;;;;5011892;28;20278;-94
2021/01/01 00:11:04;;;;;;;14.73;10.63;;;1.40;99.90;;;;;;5014815;28;20182;-93
2021/01/01 00:13:48;;;;;;;14.10;9.77;;;1.40;99.90;;;;;;5015116;28;20209;-94
2021/01/01 00:16:29;;;;;;;12.97;9.70;;;1.40;99.90;;;;;;5015075;28;20183;-94
2021/01/01 00:19:07;;;;;;;15.73;11.33;;;1.40;99.90;;;;;;5014490;28;20175;-93
2021/01/01 00:21:41;;;;;;;12.63;10.03;;;1.40;99.90;;;;;;5014466;28;20211;-94
2021/01/01 00:24:13;;;;;;;15.90;10.97;;;1.40;99.90;;;;;;5014386;28;20262;-93
2021/01/01 00:26:57;;;;;;;20.33;13.77;;;1.40;99.90;;;;;;5014715;28;20187;-93
2021/01/01 00:29:34;;;;;;;24.83;16.03;;;1.40;99.90;;;;;;5014443;28;20182;-92
2021/01/01 00:32:06;;;;;;;24.27;17.07;;;1.40;99.90;;;;;;5014246;28;20209;-94
2021/01/01 00:34:43;;;;;;;25.00;16.87;;;1.40;99.90;;;;;;5015672;28;20260;-93
2021/01/01 00:37:13;;;;;;;19.23;13.77;;;1.40;99.90;;;;;;5015290;28;20198;-95
2021/01/01 00:39:49;;;;;;;20.93;14.77;;;1.40;99.90;;;;;;5016388;28;20183;-95
2021/01/01 00:42:17;;;;;;;24.13;16.17;;;1.40;99.90;;;;;;5014679;28;20223;-95
2021/01/01 00:45:47;;;;;;;21.87;15.17;;;1.40;99.90;;;;;;5015445;28;20175;-95
2021/01/01 00:48:13;;;;;;;23.67;15.70;;;1.30;99.90;;;;;;5015349;28;20214;-95
2021/01/01 00:50:45;;;;;;;25.97;17.57;;;1.30;99.90;;;;;;5015172;28;20194;-94
2021/01/01 00:53:16;;;;;;;20.77;14.43;;;1.30;99.90;;;;;;5015237;28;20168;-94
2021/01/01 00:55:45;;;;;;;21.13;13.97;;;1.30;99.90;;;;;;5014379;28;20686;-93
2021/01/01 00:58:13;;;;;;;21.07;14.53;;;1.30;99.90;;;;;;5014917;28;20181;-94
2021/01/01 01:00:39;;;;;;;19.07;13.00;;;1.30;99.90;;;;;;5014918;28;20203;-94
2021/01/01 01:03:07;;;;;;;19.47;13.00;;;1.30;99.90;;;;;;5015575;28;20178;-95
2021/01/01 01:05:37;;;;;;;19.87;13.43;;;1.40;99.90;;;;;;5015936;28;20244;-94
2021/01/01 01:08:10;;;;;;;20.63;13.90;;;1.30;99.90;;;;;;5016996;28;20167;-95
2021/01/01 01:10:39;;;;;;;21.20;13.90;;;1.30;99.90;;;;;;5016460;28;20172;-95
2021/01/01 01:13:05;;;;;;;21.17;14.40;;;1.30;99.90;;;;;;5016311;28;20171;-95
2021/01/01 01:15:47;;;;;;;21.10;14.53;;;1.30;99.90;;;;;;5015514;28;20702;-94
2021/01/01 01:18:13;;;;;;;22.73;14.40;;;1.30;99.90;;;;;;5015743;28;20174;-95
2021/01/01 01:20:42;;;;;;;18.83;13.80;;;1.40;99.90;;;;;;5014933;28;20199;-95
2021/01/01 01:23:26;;;;;;;20.90;14.30;;;1.40;99.90;;;;;;5015496;28;20170;-95
2021/01/01 01:25:52;;;;;;;17.90;13.17;;;1.40;99.90;;;;;;5015636;28;20167;-96
2021/01/01 01:28:31;;;;;;;20.73;14.47;;;1.40;99.90;;;;;;5015544;28;20209;-93
2021/01/01 01:31:19;;;;;;;22.60;15.30;;;1.40;99.90;;;;;;5016231;28;20201;-95
2021/01/01 01:34:07;;;;;;;23.53;15.87;;;1.40;99.90;;;;;;5016529;28;20172;-95
2021/01/01 01:36:40;;;;;;;27.10;15.67;;;1.40;99.90;;;;;;5015600;28;20520;-93
2021/01/01 01:39:11;;;;;;;26.17;17.37;;;1.40;99.90;;;;;;5015536;28;20225;-93
2021/01/01 01:41:40;;;;;;;26.70;17.93;;;1.40;99.90;;;;;;5015164;28;20295;-94
2021/01/01 01:44:08;;;;;;;27.73;18.40;;;1.40;99.90;;;;;;5015444;28;20170;-94
2021/01/01 01:46:42;;;;;;;27.80;18.07;;;1.40;99.90;;;;;;5015603;28;20615;-94
2021/01/01 01:49:14;;;;;;;26.10;17.73;;;1.40;99.90;;;;;;5015544;28;20277;-94
2021/01/01 01:51:42;;;;;;;28.50;18.83;;;1.40;99.90;;;;;;5018658;28;20260;-94
2021/01/01 01:54:08;;;;;;;29.63;19.27;;;1.40;99.90;;;;;;5018609;28;20584;-95
2021/01/01 01:56:45;;;;;;;31.93;18.73;;;1.40;99.90;;;;;;5017186;28;20185;-94
2021/01/01 01:59:21;;;;;;;29.97;19.13;;;1.40;99.90;;;;;;5017131;28;20174;-94
2021/01/01 02:01:55;;;;;;;28.83;18.43;;;1.40;99.90;;;;;;5017092;28;20626;-94
2021/01/01 02:04:21;;;;;;;30.67;19.70;;;1.40;99.90;;;;;;5017325;28;20167;-95
2021/01/01 02:06:49;;;;;;;30.60;20.57;;;1.40;99.90;;;;;;5018737;28;20513;-94
2021/01/01 02:09:15;;;;;;;31.80;20.53;;;1.40;99.90;;;;;;5020947;28;20179;-94
2021/01/01 02:11:46;;;;;;;34.80;19.53;;;1.40;99.90;;;;;;5020589;28;20205;-94
2021/01/01 02:14:16;;;;;;;30.97;18.77;;;1.30;99.90;;;;;;5021120;28;20225;-95
2021/01/01 02:17:16;;;;;;;28.23;18.07;;;1.40;99.90;;;;;;5020675;28;20175;-96
2021/01/01 02:19:42;;;;;;;27.67;19.13;;;1.40;99.90;;;;;;5020622;28;20180;-94
2021/01/01 02:22:09;;;;;;;32.47;20.47;;;1.40;99.90;;;;;;5020703;28;20228;-94
2021/01/01 02:24:57;;;;;;;29.27;20.23;;;1.40;99.90;;;;;;5020596;28;20206;-93
2021/01/01 02:27:24;;;;;;;30.67;19.53;;;1.30;99.90;;;;;;5020830;28;20171;-93
2021/01/01 02:30:06;;;;;;;30.13;20.50;;;1.30;99.90;;;;;;5021056;28;20178;-95
2021/01/01 02:32:42;;;;;;;32.70;21.67;;;1.30;99.90;;;;;;5021034;28;20532;-95
2021/01/01 02:35:14;;;;;;;35.53;21.07;;;1.30;99.90;;;;;;5020423;28;20553;-94
2021/01/01 02:37:40;;;;;;;31.37;21.10;;;1.20;99.90;;;;;;5020429;28;20267;-94
2021/01/01 02:40:10;;;;;;;32.70;20.83;;;1.30;99.90;;;;;;5020644;28;20203;-96
2021/01/01 02:42:36;;;;;;;35.00;21.33;;;1.30;99.90;;;;;;5019662;28;20222;-94
2021/01/01 02:45:10;;;;;;;31.17;20.47;;;1.20;99.90;;;;;;5019673;28;20175;-94
2021/01/01 02:47:48;;;;;;;30.43;20.93;;;1.20;99.90;;;;;;5019714;28;20214;-95
2021/01/01 02:50:33;;;;;;;34.00;21.53;;;1.20;99.90;;;;;;5019516;28;20306;-94
2021/01/01 02:53:11;;;;;;;33.70;21.40;;;1.20;99.90;;;;;;5019794;28;20171;-95
2021/01/01 02:55:50;;;;;;;35.10;22.20;;;1.20;99.90;;;;;;5020037;28;20198;-95
2021/01/01 03:01:38;;;;;;;35.70;21.70;;;1.10;99.90;;;;;;5037781;28;20268;-95
2021/01/01 03:04:22;;;;;;;33.33;21.73;;;1.10;99.90;;;;;;5020430;28;20184;-94
2021/01/01 03:06:48;;;;;;;38.53;21.73;;;1.20;99.90;;;;;;5020374;28;20167;-94
2021/01/01 03:09:36;;;;;;;37.00;23.80;;;1.10;99.90;;;;;;5020983;28;20179;-94
2021/01/01 03:12:09;;;;;;;39.67;22.87;;;1.10;99.90;;;;;;5019637;28;20221;-95
2021/01/01 03:14:40;;;;;;;37.17;22.47;;;1.10;99.90;;;;;;5019595;28;20174;-94
2021/01/01 03:17:21;;;;;;;34.10;22.00;;;1.20;99.90;;;;;;5019783;28;20194;-94
2021/01/01 03:20:10;;;;;;;32.97;21.60;;;1.10;99.90;;;;;;5019683;28;20167;-94
2021/01/01 03:22:40;;;;;;;35.70;22.33;;;1.10;99.90;;;;;;5019017;28;20264;-94
2021/01/01 03:25:15;;;;;;;36.13;22.07;;;1.10;99.90;;;;;;5019568;28;20170;-95
2021/01/01 03:27:48;;;;;;;34.67;22.47;;;1.10;99.90;;;;;;5019548;28;20561;-94
2021/01/01 03:30:21;;;;;;;33.30;22.43;;;1.10;99.90;;;;;;5019853;28;20167;-93
2021/01/01 03:32:51;;;;;;;30.50;20.50;;;1.10;99.90;;;;;;5019306;28;20559;-94
2021/01/01 03:35:17;;;;;;;35.60;22.27;;;1.10;99.90;;;;;;5020233;28;20174;-93
2021/01/01 03:37:56;;;;;;;34.27;22.47;;;1.10;99.90;;;;;;5020489;28;20170;-94
2021/01/01 03:40:23;;;;;;;33.30;21.57;;;1.10;99.90;;;;;;5019996;28;20169;-94
2021/01/01 03:43:10;;;;;;;32.23;21.77;;;1.10;99.90;;;;;;5020335;28;20234;-94
2021/01/01 03:45:50;;;;;;;35.17;21.80;;;1.20;99.90;;;;;;5020261;28;20174;-93
2021/01/01 03:48:46;;;;;;;33.30;21.17;;;1.10;99.90;;;;;;5019520;28;20169;-93
2021/01/01 03:51:30;;;;;;;30.33;20.73;;;1.20;99.90;;;;;;5018294;28;20301;-93
2021/01/01 03:54:00;;;;;;;31.80;20.60;;;1.10;99.90;;;;;;5018272;28;20660;-93
2021/01/01 03:56:32;;;;;;;31.40;20.57;;;1.10;99.90;;;;;;5018853;28;20286;-95
2021/01/01 03:59:08;;;;;;;31.03;20.00;;;1.10;99.90;;;;;;5018611;28;20269;-93
2021/01/01 04:01:33;;;;;;;32.37;20.13;;;1.00;99.90;;;;;;5017725;28;20713;-95
2021/01/01 04:04:10;;;;;;;33.53;20.23;;;1.00;99.90;;;;;;5018093;28;20217;-94
2021/01/01 04:06:36;;;;;;;30.93;20.10;;;1.00;99.90;;;;;;5017855;28;20174;-94
2021/01/01 04:09:02;;;;;;;28.13;19.83;;;1.00;99.90;;;;;;5018189;28;20167;-94
2021/01/01 04:11:59;;;;;;;30.67;19.80;;;1.00;99.90;;;;;;5018076;28;20256;-93
2021/01/01 04:14:58;;;;;;;31.67;20.07;;;1.00;99.90;;;;;;5018139;28;20174;-94
2021/01/01 04:17:47;;;;;;;28.97;18.80;;;1.00;99.90;;;;;;5018033;28;20178;-94
2021/01/01 04:20:20;;;;;;;30.40;18.97;;;0.90;99.90;;;;;;5018310;28;20670;-93
2021/01/01 04:22:55;;;;;;;30.23;20.47;;;1.00;99.90;;;;;;5018141;28;20277;-94
2021/01/01 04:25:23;;;;;;;31.27;21.07;;;1.00;99.90;;;;;;5018118;28;20653;-94
2021/01/01 04:28:11;;;;;;;33.53;20.63;;;1.00;99.90;;;;;;5018026;28;20176;-94
2021/01/01 04:30:38;;;;;;;33.57;20.50;;;1.10;99.90;;;;;;5018000;28;20258;-93
2021/01/01 04:33:49;;;;;;;31.37;20.33;;;1.10;99.90;;;;;;5018808;28;20181;-92
2021/01/01 04:36:15;;;;;;;31.33;20.07;;;1.10;99.90;;;;;;5018509;28;20201;-93
2021/01/01 04:38:51;;;;;;;29.70;20.30;;;1.10;99.90;;;;;;5018340;28;20549;-94
2021/01/01 04:41:43;;;;;;;32.37;21.17;;;1.10;99.90;;;;;;5017773;28;20244;-93
2021/01/01 04:44:16;;;;;;;28.63;19.10;;;1.10;99.90;;;;;;5017648;28;20170;-93
2021/01/01 04:46:42;;;;;;;33.37;20.23;;;1.10;99.90;;;;;;5017559;28;20190;-93
2021/01/01 04:49:39;;;;;;;28.57;18.90;;;1.10;99.90;;;;;;5017232;28;20257;-95
2021/01/01 04:52:39;;;;;;;28.97;17.63;;;1.10;99.90;;;;;;5017150;28;20253;-94
2021/01/01 04:55:17;;;;;;;26.87;17.37;;;1.10;99.90;;;;;;5017426;28;20640;-93
2021/01/01 04:57:44;;;;;;;29.47;18.37;;;1.10;99.90;;;;;;5017294;28;20172;-94
2021/01/01 05:00:21;;;;;;;27.00;18.40;;;1.10;99.90;;;;;;5017449;28;20189;-94
2021/01/01 05:03:16;;;;;;;26.80;17.47;;;1.10;99.90;;;;;;5017278;28;20206;-93
2021/01/01 05:05:51;;;;;;;28.80;17.40;;;1.10;99.90;;;;;;5017439;28;20178;-95
2021/01/01 05:08:23;;;;;;;25.00;17.67;;;1.10;99.90;;;;;;5017231;28;20177;-93
2021/01/01 05:11:09;;;;;;;27.17;17.83;;;1.10;99.90;;;;;;5016984;28;20195;-95
2021/01/01 05:14:10;;;;;;;26.27;18.07;;;1.00;99.90;;;;;;5017270;28;20170;-94
2021/01/01 05:16:38;;;;;;;24.43;17.07;;;1.10;99.90;;;;;;5017024;28;20167;-94
2021/01/01 05:19:18;;;;;;;25.23;17.07;;;1.10;99.90;;;;;;5016962;28;20273;-94
2021/01/01 05:22:04;;;;;;;23.57;16.53;;;1.00;99.90;;;;;;5017441;28;20209;-92
2021/01/01 05:24:43;;;;;;;24.13;15.43;;;1.10;99.90;;;;;;5017016;28;20261;-94
2021/01/01 05:27:14;;;;;;;25.20;16.80;;;1.10;99.90;;;;;;5017454;28;20170;-94
2021/01/01 05:30:07;;;;;;;25.13;17.10;;;1.00;99.90;;;;;;5017430;28;20205;-95
2021/01/01 05:35:40;;;;;;;24.33;16.03;;;1.00;99.90;;;;;;5034507;28;20669;-93
2021/01/01 05:38:45;;;;;;;28.27;16.67;;;1.10;99.90;;;;;;5016762;28;20198;-93
2021/01/01 05:44:51;;;;;;;27.63;17.30;;;1.00;99.90;;;;;;5037806;28;20562;-94
2021/01/01 05:47:32;;;;;;;25.10;16.00;;;1.00;99.90;;;;;;5020869;28;20223;-94
2021/01/01 05:50:05;;;;;;;24.27;15.80;;;0.90;99.90;;;;;;5020642;28;20229;-95
2021/01/01 05:52:38;;;;;;;26.53;16.10;;;0.90;99.90;;;;;;5020633;28;20209;-94
2021/01/01 05:55:06;;;;;;;22.80;14.97;;;1.00;99.90;;;;;;5020354;28;20581;-95
2021/01/01 05:57:39;;;;;;;22.57;15.33;;;0.90;99.90;;;;;;5020572;28;20182;-95
2021/01/01 06:00:11;;;;;;;25.63;15.90;;;0.90;99.90;;;;;;5020302;28;20179;-95
2021/01/01 06:09:26;;;;;;;22.10;14.67;;;0.90;99.90;;;;;;5037794;28;20182;-94
2021/01/01 06:12:25;;;;;;;24.83;16.10;;;0.90;99.90;;;;;;5020066;28;20204;-94
2021/01/01 06:15:28;;;;;;;24.50;15.10;;;0.90;99.90;;;;;;5019953;28;20170;-94
2021/01/01 06:18:06;;;;;;;25.00;15.23;;;0.80;99.90;;;;;;5020103;28;20170;-92
2021/01/01 06:20:32;;;;;;;23.10;15.20;;;0.80;99.90;;;;;;5020168;28;20185;-94
2021/01/01 06:23:25;;;;;;;22.27;14.27;;;0.80;99.90;;;;;;5020020;28;20534;-93
2021/01/01 06:26:01;;;;;;;25.37;15.23;;;0.80;99.90;;;;;;5019803;28;20179;-93
2021/01/01 06:28:44;;;;;;;23.43;15.43;;;0.80;99.90;;;;;;5019670;28;20175;-94
2021/01/01 06:31:29;;;;;;;21.63;14.67;;;0.80;99.90;;;;;;5020174;28;20245;-94
2021/01/01 06:37:43;;;;;;;21.93;13.83;;;0.80;99.90;;;;;;5034779;28;20189;-94
2021/01/01 06:40:49;;;;;;;20.83;14.40;;;0.80;99.90;;;;;;5019671;28;20178;-94
2021/01/01 06:43:56;;;;;;;22.77;13.93;;;0.70;99.90;;;;;;5020205;28;20193;-95
2021/01/01 06:46:55;;;;;;;20.43;13.93;;;0.70;99.90;;;;;;5019741;28;20250;-95
2021/01/01 06:49:57;;;;;;;23.50;14.13;;;0.70;99.90;;;;;;5018737;28;20224;-93
2021/01/01 06:52:26;;;;;;;21.37;13.27;;;0.70;99.90;;;;;;5005530;28;20272;-94
2021/01/01 06:58:35;;;;;;;21.80;13.80;;;0.70;99.90;;;;;;5037160;28;20220;-94
2021/01/01 07:01:40;;;;;;;21.30;13.83;;;0.80;99.90;;;;;;5018798;28;20228;-94
2021/01/01 07:04:15;;;;;;;18.03;13.43;;;0.70;99.90;;;;;;5018967;28;20183;-95
2021/01/01 07:07:00;;;;;;;21.87;13.83;;;0.70;99.90;;;;;;5019456;28;20529;-93
2021/01/01 07:10:00;;;;;;;23.67;15.23;;;0.70;99.90;;;;;;5019021;28;20203;-96
2021/01/01 07:16:47;;;;;;;22.93;13.83;;;0.80;99.90;;;;;;5032303;28;20553;-95
2021/01/01 07:19:15;;;;;;;20.03;12.87;;;0.80;99.90;;;;;;5018884;28;20177;-95
2021/01/01 07:21:43;;;;;;;21.10;13.47;;;0.80;99.90;;;;;;5019449;28;20569;-94
2021/01/01 07:24:30;;;;;;;20.40;13.97;;;0.80;99.90;;;;;;5019616;28;20173;-94
2021/01/01 07:26:57;;;;;;;23.63;13.47;;;0.80;99.90;;;;;;5021559;28;20639;-94
2021/01/01 07:29:25;;;;;;;19.93;13.23;;;0.80;99.90;;;;;;5021785;28;20166;-93
2021/01/01 07:31:52;;;;;;;20.20;13.93;;;0.80;99.90;;;;;;5021144;28;20251;-94
2021/01/01 07:34:35;;;;;;;18.93;13.60;;;0.90;99.90;;;;;;5020781;28;20178;-94
2021/01/01 07:37:02;;;;;;;22.17;14.07;;;0.90;99.90;;;;;;5021963;28;20198;-94
2021/01/01 07:39:30;;;;;;;19.13;13.47;;;0.90;99.90;;;;;;5021481;28;20181;-93
2021/01/01 07:42:06;;;;;;;18.80;12.57;;;0.90;99.90;;;;;;5021458;28;20210;-94
2021/01/01 07:44:38;;;;;;;25.13;15.67;;;0.90;99.90;;;;;;5021394;28;20170;-95
2021/01/01 07:47:23;;;;;;;21.97;13.97;;;1.00;99.90;;;;;;5021884;28;20263;-93
2021/01/01 07:49:55;;;;;;;23.57;15.60;;;0.90;99.90;;;;;;5021653;28;20229;-94
2021/01/01 07:52:24;;;;;;;21.57;13.97;;;1.00;99.90;;;;;;5020149;28;20668;-95
2021/01/01 07:55:08;;;;;;;23.67;15.07;;;1.00;99.90;;;;;;5019699;28;20182;-94
2021/01/01 07:57:59;;;;;;;20.53;13.87;;;1.00;99.90;;;;;;5020447;28;20178;-94
2021/01/01 08:00:30;;;;;;;24.07;14.37;;;1.10;99.90;;;;;;5020381;28;20276;-93
2021/01/01 08:03:08;;;;;;;21.17;14.50;;;1.10;99.90;;;;;;5021023;28;20233;-93
2021/01/01 08:05:49;;;;;;;23.73;15.33;;;1.10;99.90;;;;;;5020285;28;20182;-91
2021/01/01 08:08:22;;;;;;;22.47;14.03;;;1.20;99.90;;;;;;5020778;28;20186;-95
2021/01/01 08:10:58;;;;;;;22.73;14.23;;;1.20;99.90;;;;;;5020391;28;20203;-92
2021/01/01 08:13:36;;;;;;;20.50;13.43;;;1.20;99.90;;;;;;5020763;28;20173;-93
2021/01/01 08:16:13;;;;;;;22.23;14.73;;;1.20;99.90;;;;;;5020637;28;20625;-92
2021/01/01 08:18:41;;;;;;;20.77;14.30;;;1.20;99.90;;;;;;5020665;28;20280;-94
2021/01/01 08:21:07;;;;;;;21.30;14.63;;;1.20;99.90;;;;;;5020092;28;20215;-94
2021/01/01 08:24:17;;;;;;;22.33;15.20;;;1.20;99.90;;;;;;5020616;28;20166;-94
2021/01/01 08:26:45;;;;;;;20.70;13.93;;;1.20;99.90;;;;;;4940750;29;20271;-94
2021/01/01 08:29:14;;;;;;;23.70;15.43;;;1.30;99.90;;;;;;4952321;28;20191;-93
2021/01/01 08:31:41;;;;;;;21.43;14.37;;;1.30;99.90;;;;;;5018532;28;20202;-93
2021/01/01 08:34:23;;;;;;;21.00;14.00;;;1.30;99.90;;;;;;5019116;28;20210;-95
2021/01/01 08:37:01;;;;;;;20.67;14.37;;;1.30;99.90;;;;;;5019243;28;20179;-95
2021/01/01 08:39:46;;;;;;;22.60;14.37;;;1.30;99.90;;;;;;5018744;28;20174;-94
2021/01/01 08:42:41;;;;;;;21.10;13.40;;;1.30;99.90;;;;;;5018476;28;20259;-93
2021/01/01 08:45:15;;;;;;;20.37;14.03;;;1.30;99.90;;;;;;5011436;28;20214;-93
2021/01/01 08:48:10;;;;;;;21.63;14.07;;;1.40;99.90;;;;;;5017538;28;20206;-93
2021/01/01 08:50:45;;;;;;;21.77;13.53;;;1.40;99.90;;;;;;5002674;28;20223;-94
2021/01/01 08:56:41;;;;;;;18.27;12.30;;;1.50;99.90;;;;;;5007983;28;20194;-92
2021/01/01 08:59:51;;;;;;;19.37;12.83;;;1.50;99.90;;;;;;4998499;28;20167;-93
2021/01/01 09:02:32;;;;;;;19.83;13.73;;;1.50;99.90;;;;;;4998268;28;20748;-93
2021/01/01 09:05:24;;;;;;;19.23;13.57;;;1.60;99.90;;;;;;4997726;28;20239;-93
2021/01/01 09:08:40;;;;;;;24.27;14.53;;;1.60;99.90;;;;;;4998430;28;20228;-92
2021/01/01 09:11:21;;;;;;;19.57;13.30;;;1.60;99.90;;;;;;4997627;28;20203;-93
2021/01/01 09:14:12;;;;;;;23.03;15.17;;;1.60;99.90;;;;;;4998495;28;20233;-93
2021/01/01 09:16:39;;;;;;;21.60;15.10;;;1.60;99.90;;;;;;4997226;28;20175;-92
2021/01/01 09:19:17;;;;;;;23.50;14.53;;;1.60;99.90;;;;;;4997543;28;20175;-93
2021/01/01 09:21:43;;;;;;;20.97;14.80;;;1.70;99.90;;;;;;4998049;28;20214;-93
2021/01/01 09:24:09;;;;;;;21.57;14.70;;;1.80;99.90;;;;;;4998235;28;20171;-92
2021/01/01 09:26:35;;;;;;;25.23;15.80;;;1.90;99.90;;;;;;4998207;28;20184;-92
2021/01/01 09:29:06;;;;;;;25.13;15.80;;;1.90;99.90;;;;;;4998600;28;20168;-94
2021/01/01 09:31:46;;;;;;;22.50;15.17;;;1.90;99.90;;;;;;4997541;28;20206;-93
2021/01/01 09:34:17;;;;;;;24.27;15.93;;;2.00;99.90;;;;;;4997162;28;20185;-93
2021/01/01 09:36:46;;;;;;;25.90;15.70;;;2.00;99.90;;;;;;4997239;28;20609;-92
2021/01/01 09:39:30;;;;;;;20.67;15.03;;;2.10;99.90;;;;;;4997713;28;20182;-92
2021/01/01 09:42:26;;;;;;;24.40;16.27;;;2.10;99.90;;;;;;5014828;28;20217;-92
2021/01/01 09:45:15;;;;;;;26.47;16.43;;;2.10;99.90;;;;;;4997655;28;20175;-93
2021/01/01 09:47:43;;;;;;;24.77;16.63;;;2.10;99.90;;;;;;4997961;28;20298;-93
2021/01/01 09:50:27;;;;;;;23.13;15.97;;;2.10;99.90;;;;;;5009026;28;20272;-91
2021/01/01 09:52:53;;;;;;;24.20;15.83;;;2.20;99.90;;;;;;5017914;28;20238;-93
2021/01/01 09:55:26;;;;;;;23.57;15.33;;;2.20;99.90;;;;;;5018421;28;20176;-91
2021/01/01 09:58:15;;;;;;;25.90;15.90;;;2.20;99.90;;;;;;5018585;28;20646;-93
2021/01/01 10:00:52;;;;;;;22.77;15.97;;;2.20;99.90;;;;;;5019998;28;20178;-94
2021/01/01 10:03:20;;;;;;;23.83;16.17;;;2.30;99.90;;;;;;5020162;28;20173;-93
2021/01/01 10:05:54;;;;;;;26.13;15.53;;;2.30;99.90;;;;;;5019747;28;20164;-94
2021/01/01 10:08:37;;;;;;;21.97;15.00;;;2.30;99.90;;;;;;5020143;28;20176;-94
2021/01/01 10:11:13;;;;;;;23.10;15.77;;;2.40;99.90;;;;;;5020109;28;20218;-93
2021/01/01 10:13:43;;;;;;;19.87;14.67;;;2.40;99.90;;;;;;5018974;28;20270;-92
2021/01/01 10:16:11;;;;;;;22.53;15.00;;;2.50;99.90;;;;;;5017541;28;20178;-92
2021/01/01 10:18:40;;;;;;;23.90;15.73;;;2.50;99.90;;;;;;5018194;28;20177;-92
2021/01/01 10:21:10;;;;;;;22.63;14.63;;;2.50;99.90;;;;;;5019210;28;20217;-92
2021/01/01 10:23:41;;;;;;;20.63;14.27;;;2.50;99.90;;;;;;5017967;28;20216;-93
2021/01/01 10:26:18;;;;;;;21.50;15.30;;;2.60;99.90;;;;;;5018719;28;20177;-94
2021/01/01 10:28:57;;;;;;;19.87;14.03;;;2.60;99.90;;;;;;5022280;28;20189;-93
2021/01/01 10:31:34;;;;;;;20.83;14.60;;;2.70;99.90;;;;;;5022588;28;20207;-93
2021/01/01 10:34:20;;;;;;;19.63;13.60;;;2.70;99.90;;;;;;5005026;28;20257;-93
2021/01/01 10:36:59;;;;;;;21.97;14.00;;;2.70;99.90;;;;;;5021237;28;20538;-91
2021/01/01 10:39:33;;;;;;;19.30;14.27;;;2.70;99.90;;;;;;5022562;28;20181;-95
2021/01/01 10:42:06;;;;;;;22.60;15.57;;;2.70;99.90;;;;;;5023069;28;20243;-94
2021/01/01 10:44:33;;;;;;;23.37;15.20;;;2.70;99.90;;;;;;5021515;28;20167;-96
2021/01/01 10:47:18;;;;;;;23.00;15.53;;;2.70;99.90;;;;;;5022040;28;20175;-94
2021/01/01 10:49:51;;;;;;;21.47;14.13;;;2.90;99.90;;;;;;5022338;28;20304;-93
2021/01/01 10:52:19;;;;;;;22.63;15.77;;;2.90;99.90;;;;;;5021142;28;20584;-94
2021/01/01 10:54:59;;;;;;;25.27;15.73;;;2.90;99.90;;;;;;5022015;28;20182;-94
2021/01/01 10:57:34;;;;;;;20.80;14.20;;;2.90;99.90;;;;;;5021126;28;20182;-95
2021/01/01 11:00:21;;;;;;;20.40;14.60;;;3.00;99.90;;;;;;5021110;28;20192;-92
2021/01/01 11:03:00;;;;;;;21.63;14.57;;;3.00;99.90;;;;;;5020997;28;20214;-93
2021/01/01 11:05:26;;;;;;;19.50;13.30;;;3.00;99.90;;;;;;5022469;28;20196;-92
2021/01/01 11:07:55;;;;;;;20.17;13.13;;;3.00;99.90;;;;;;5022047;28;20169;-93
2021/01/01 11:10:22;;;;;;;20.20;14.17;;;3.10;99.90;;;;;;5021565;28;20205;-94
2021/01/01 11:12:50;;;;;;;21.23;14.07;;;3.10;99.90;;;;;;5021581;28;20236;-93
2021/01/01 12:19:36;;;;;;;16.50;12.80;;;3.20;99.90;;;;;;5020894;28;20654;-94
2021/01/01 12:27:01;;;;;;;13.47;9.03;;;3.50;99.90;;;;;;5036098;28;20166;-94
2021/01/01 12:29:35;;;;;;;12.17;8.70;;;3.50;99.90;;;;;;5017986;28;20170;-94
2021/01/01 12:32:09;;;;;;;13.47;9.00;;;3.50;99.90;;;;;;5018652;28;20728;-93
2021/01/01 12:34:35;;;;;;;15.00;8.87;;;3.50;99.90;;;;;;5017943;28;20186;-96
2021/01/01 12:37:01;;;;;;;15.43;9.37;;;3.40;99.90;;;;;;5019276;28;20183;-96
2021/01/01 12:39:27;;;;;;;13.03;8.23;;;3.40;99.90;;;;;;5019881;28;20181;-94
2021/01/01 12:41:52;;;;;;;14.17;8.20;;;3.40;99.90;;;;;;5019681;28;20202;-93
2021/01/01 12:44:31;;;;;;;11.43;7.73;;;3.40;99.90;;;;;;5019194;28;20163;-94
2021/01/01 12:46:59;;;;;;;12.37;7.47;;;3.50;99.90;;;;;;5019059;28;20213;-94
2021/01/01 12:49:25;;;;;;;13.07;8.17;;;3.50;99.90;;;;;;5019452;28;20173;-96
2021/01/01 12:52:14;;;;;;;11.93;8.13;;;3.60;99.90;;;;;;5019704;28;20206;-94
2021/01/01 12:54:54;;;;;;;11.17;7.30;;;3.70;99.90;;;;;;5019419;28;20207;-95
2021/01/01 12:57:34;;;;;;;11.17;7.50;;;3.80;99.90;;;;;;5018634;28;20182;-95
2021/01/01 13:00:07;;;;;;;11.83;6.53;;;3.80;99.90;;;;;;5017994;28;20265;-96
2021/01/01 13:02:34;;;;;;;11.77;6.20;;;3.90;99.90;;;;;;5017813;28;20210;-94
2021/01/01 13:05:03;;;;;;;10.00;6.27;;;3.90;99.90;;;;;;5017911;28;20167;-94
2021/01/01 13:07:31;;;;;;;9.80;6.33;;;3.90;99.90;;;;;;5017156;28;20190;-95
2021/01/01 13:10:10;;;;;;;10.70;6.83;;;4.00;99.90;;;;;;5017692;28;20223;-95
2021/01/01 13:12:43;;;;;;;11.03;6.00;;;4.00;99.90;;;;;;5017762;28;20221;-94
2021/01/01 13:15:10;;;;;;;10.53;6.23;;;3.90;99.90;;;;;;5017627;28;20167;-95
2021/01/01 13:17:54;;;;;;;11.67;6.20;;;3.90;99.90;;;;;;5017938;28;20238;-94
2021/01/01 13:20:30;;;;;;;12.20;5.77;;;3.90;99.90;;;;;;5017449;28;20185;-93
2021/01/01 13:23:03;;;;;;;9.73;6.20;;;3.90;99.90;;;;;;5017714;28;20198;-93
2021/01/01 13:25:40;;;;;;;8.93;5.13;;;3.90;99.90;;;;;;5018359;28;20175;-92
2021/01/01 13:28:19;;;;;;;10.17;5.97;;;3.90;99.90;;;;;;5020982;28;20232;-92
2021/01/01 13:30:54;;;;;;;12.60;6.10;;;3.90;99.90;;;;;;5020983;28;20176;-93
2021/01/01 13:33:24;;;;;;;13.03;5.70;;;3.80;99.90;;;;;;5018809;28;20257;-93
2021/01/01 13:35:55;;;;;;;9.83;5.93;;;3.80;99.90;;;;;;5020962;28;20652;-94
2021/01/01 13:38:28;;;;;;;10.63;5.83;;;3.80;99.90;;;;;;5019764;28;20177;-94
2021/01/01 13:40:55;;;;;;;10.67;6.00;;;3.80;99.90;;;;;;5020436;28;20251;-95
2021/01/01 13:43:21;;;;;;;10.17;5.77;;;3.80;99.90;;;;;;5020723;28;20257;-92
2021/01/01 13:46:12;;;;;;;8.83;5.97;;;3.80;99.90;;;;;;5019698;28;20596;-94
2021/01/01 13:48:39;;;;;;;8.27;5.53;;;3.80;99.90;;;;;;5021250;28;20174;-95
2021/01/01 13:51:34;;;;;;;11.13;5.90;;;3.80;99.90;;;;;;5021584;28;20284;-93
2021/01/01 13:54:05;;;;;;;10.47;5.67;;;3.80;99.90;;;;;;5018927;28;20171;-95
2021/01/01 13:56:32;;;;;;;10.10;6.23;;;3.80;99.90;;;;;;5020927;28;20653;-95
2021/01/01 13:59:09;;;;;;;11.73;5.80;;;3.90;99.90;;;;;;5017530;28;20181;-93
2021/01/01 14:01:35;;;;;;;10.37;6.10;;;3.80;99.90;;;;;;5019094;28;20210;-95
2021/01/01 14:04:04;;;;;;;14.40;6.47;;;3.80;99.90;;;;;;5020559;28;20253;-96
2021/01/01 14:06:33;;;;;;;11.13;6.50;;;3.80;99.90;;;;;;5020539;28;20182;-94
2021/01/01 14:09:09;;;;;;;11.53;6.70;;;3.80;99.90;;;;;;5020771;28;20169;-95
2021/01/01 14:11:37;;;;;;;13.27;7.90;;;3.70;99.90;;;;;;5022701;28;20203;-92
2021/01/01 14:14:04;;;;;;;10.17;6.73;;;3.70;99.90;;;;;;5022040;28;20529;-94
2021/01/01 14:17:08;;;;;;;13.57;8.27;;;3.70;99.90;;;;;;5021571;28;20174;-95
2021/01/01 14:19:37;;;;;;;12.57;7.23;;;3.70;99.90;;;;;;5022598;28;20174;-95
2021/01/01 14:22:10;;;;;;;21.60;7.90;;;3.70;99.90;;;;;;5020738;28;20206;-95
2021/01/01 14:24:44;;;;;;;13.10;7.30;;;3.60;99.90;;;;;;5021216;28;20193;-95
2021/01/01 14:27:32;;;;;;;14.50;8.27;;;3.60;99.90;;;;;;5020264;28;20178;-94
2021/01/01 14:29:59;;;;;;;14.13;7.90;;;3.50;99.90;;;;;;5020985;28;20232;-94
2021/01/01 14:32:42;;;;;;;12.63;8.10;;;3.50;99.90;;;;;;5020253;28;20198;-95
2021/01/01 14:35:09;;;;;;;18.97;8.50;;;3.40;99.90;;;;;;5019932;28;20648;-94
2021/01/01 14:37:44;;;;;;;14.67;8.27;;;3.40;99.90;;;;;;5020733;28;20181;-95
2021/01/01 14:40:12;;;;;;;16.67;9.43;;;3.30;99.90;;;;;;5019895;28;20182;-94
2021/01/01 14:43:03;;;;;;;16.13;9.17;;;3.30;99.90;;;;;;5021234;28;20293;-94
2021/01/01 14:45:30;;;;;;;15.20;8.37;;;3.20;99.90;;;;;;5021172;28;20171;-94
2021/01/01 14:48:06;;;;;;;15.63;8.30;;;3.30;99.90;;;;;;5022228;28;20171;-94
2021/01/01 14:50:32;;;;;;;14.03;8.90;;;3.30;99.90;;;;;;5021424;28;20222;-94
2021/01/01 14:52:59;;;;;;;14.70;8.77;;;3.20;99.90;;;;;;5022361;28;20760;-95
2021/01/01 14:55:46;;;;;;;18.40;9.37;;;3.30;99.90;;;;;;5022032;28;20638;-94
2021/01/01 14:58:12;;;;;;;17.27;9.60;;;3.30;99.90;;;;;;5020555;28;20213;-94
2021/01/01 15:00:38;;;;;;;15.10;9.00;;;3.20;99.90;;;;;;5021317;28;20185;-95
2021/01/01 15:03:08;;;;;;;15.70;8.93;;;3.20;99.90;;;;;;5020748;28;20301;-95
2021/01/01 15:05:34;;;;;;;16.33;9.23;;;3.20;99.90;;;;;;5021073;28;20217;-95